createdAt,value
2022-10-01T00:00:39.351Z,7.80
2022-10-01T00:01:39.425Z,7.90
2022-10-01T00:02:39.393Z,7.70
2022-10-01T00:03:39.351Z,8.00
2022-10-01T00:04:39.344Z,7.80
2022-10-01T00:05:39.338Z,7.60
2022-10-01T00:06:39.452Z,7.90
2022-10-01T00:07:39.320Z,7.80
2022-10-01T00:08:39.287Z,7.50
2022-10-01T00:09:39.284Z,7.80
2022-10-01T00:10:39.276Z,7.50
2022-10-01T00:11:39.271Z,7.70
2022-10-01T00:12:39.276Z,7.60
2022-10-01T00:13:39.227Z,7.30
2022-10-01T00:14:39.317Z,7.50
2022-10-01T00:15:39.244Z,8.00
2022-10-01T00:16:39.267Z,7.50
2022-10-01T00:17:39.216Z,7.60
2022-10-01T00:18:39.237Z,7.70
2022-10-01T00:19:39.204Z,7.50
2022-10-01T00:20:39.177Z,7.50
2022-10-01T00:21:39.156Z,7.50
2022-10-01T00:22:39.176Z,8.00
2022-10-01T00:23:39.149Z,8.20
2022-10-01T00:24:39.120Z,8.10
2022-10-01T00:25:39.121Z,8.50
2022-10-01T00:26:39.137Z,8.40
2022-10-01T00:27:39.096Z,8.20
2022-10-01T00:28:39.128Z,8.00
2022-10-01T00:29:39.066Z,8.10
2022-10-01T00:30:40.487Z,8.40
2022-10-01T00:31:40.184Z,8.00
2022-10-01T00:32:39.372Z,8.80
2022-10-01T00:33:39.844Z,8.60
2022-10-01T00:34:39.030Z,8.60
2022-10-01T00:35:39.013Z,8.20
2022-10-01T00:36:39.001Z,8.20
2022-10-01T00:37:38.990Z,8.60
2022-10-01T00:38:39.029Z,8.30
2022-10-01T00:39:38.969Z,8.30
2022-10-01T00:40:38.960Z,8.60
2022-10-01T00:41:38.962Z,8.70
2022-10-01T00:42:38.955Z,8.30
2022-10-01T00:43:38.956Z,8.50
2022-10-01T00:44:38.938Z,8.50
2022-10-01T00:45:38.969Z,8.50
2022-10-01T00:46:38.909Z,8.40
2022-10-01T00:47:38.905Z,9.10
2022-10-01T00:48:38.877Z,8.50
2022-10-01T00:49:38.882Z,8.20
2022-10-01T00:50:38.994Z,9.10
2022-10-01T00:51:38.901Z,8.30
2022-10-01T00:52:38.797Z,8.80
2022-10-01T00:53:38.825Z,8.70
2022-10-01T00:54:38.812Z,8.60
2022-10-01T00:55:38.803Z,9.00
2022-10-01T00:56:38.790Z,8.70
2022-10-01T00:57:38.785Z,8.80
2022-10-01T00:58:38.746Z,8.50
2022-10-01T00:59:38.774Z,8.30
2022-10-01T01:00:38.766Z,8.40
2022-10-01T01:01:38.811Z,8.90
2022-10-01T01:02:38.840Z,8.80
2022-10-01T01:03:38.718Z,8.60
2022-10-01T01:04:38.726Z,9.00
2022-10-01T01:05:54.917Z,8.60
2022-10-01T01:06:38.960Z,8.80
2022-10-01T01:07:40.386Z,8.90
2022-10-01T01:08:40.059Z,8.60
2022-10-01T01:09:38.890Z,9.10
2022-10-01T01:10:39.110Z,8.80
2022-10-01T01:11:38.643Z,9.20
2022-10-01T01:12:38.641Z,8.60
2022-10-01T01:13:38.661Z,8.30
2022-10-01T01:14:38.623Z,8.40
2022-10-01T01:15:38.661Z,8.70
2022-10-01T01:16:38.578Z,7.90
2022-10-01T01:17:48.165Z,8.20
2022-10-01T01:18:38.585Z,8.10
2022-10-01T01:19:38.560Z,8.20
2022-10-01T01:20:38.612Z,8.00
2022-10-01T01:21:38.587Z,8.00
2022-10-01T01:22:38.527Z,8.00
2022-10-01T01:23:38.510Z,7.50
2022-10-01T01:24:38.512Z,7.40
2022-10-01T01:25:38.535Z,7.30
2022-10-01T01:26:38.496Z,7.80
2022-10-01T01:27:38.488Z,7.60
2022-10-01T01:28:38.493Z,7.70
2022-10-01T01:29:38.480Z,7.30
2022-10-01T01:30:38.447Z,7.70
2022-10-01T01:31:38.650Z,7.80
2022-10-01T01:32:38.445Z,7.60
2022-10-01T01:33:38.504Z,7.90
2022-10-01T01:34:38.393Z,7.70
2022-10-01T01:35:38.368Z,7.60
2022-10-01T01:36:38.383Z,7.00
2022-10-01T01:37:38.563Z,7.00
2022-10-01T01:38:38.339Z,6.90
2022-10-01T01:39:38.513Z,7.20
2022-10-01T01:40:38.312Z,7.00
2022-10-01T01:41:38.337Z,7.00
2022-10-01T01:42:38.312Z,7.20
2022-10-01T01:43:38.288Z,7.40
2022-10-01T01:44:38.280Z,7.50
2022-10-01T01:45:38.351Z,6.90
2022-10-01T01:46:38.236Z,6.60
2022-10-01T01:47:38.261Z,6.90
2022-10-01T01:48:38.217Z,7.00
2022-10-01T01:49:38.204Z,6.40
2022-10-01T01:50:38.240Z,6.70
2022-10-01T01:51:38.293Z,6.40
2022-10-01T01:52:38.168Z,6.50
2022-10-01T01:53:38.189Z,6.40
2022-10-01T01:54:38.198Z,6.40
2022-10-01T01:55:38.204Z,6.30
2022-10-01T01:56:38.289Z,6.40
2022-10-01T01:57:39.072Z,6.40
2022-10-01T01:58:38.166Z,6.70
2022-10-01T01:59:38.150Z,6.30
2022-10-01T02:00:38.105Z,6.60
2022-10-01T02:01:38.529Z,6.40
2022-10-01T02:02:38.224Z,6.40
2022-10-01T02:03:39.275Z,6.10
2022-10-01T02:04:38.060Z,5.90
2022-10-01T02:05:38.061Z,6.10
2022-10-01T02:06:38.043Z,6.30
2022-10-01T02:07:38.097Z,6.30
2022-10-01T02:08:38.981Z,6.70
2022-10-01T02:09:38.173Z,6.40
2022-10-01T02:10:37.978Z,6.30
2022-10-01T02:11:37.973Z,6.60
2022-10-01T02:12:38.022Z,6.60
2022-10-01T02:13:37.938Z,6.30
2022-10-01T02:14:37.953Z,6.20
2022-10-01T02:15:37.976Z,6.30
2022-10-01T02:16:37.918Z,6.10
2022-10-01T02:17:37.895Z,6.00
2022-10-01T02:18:37.929Z,6.20
2022-10-01T02:19:37.897Z,5.90
2022-10-01T02:20:37.867Z,6.00
2022-10-01T02:21:37.894Z,5.90
2022-10-01T02:22:37.859Z,6.00
2022-10-01T02:23:37.894Z,5.90
2022-10-01T02:24:37.828Z,6.10
2022-10-01T02:25:37.886Z,5.90
2022-10-01T02:26:37.805Z,6.00
2022-10-01T02:27:37.855Z,5.80
2022-10-01T02:28:37.810Z,5.60
2022-10-01T02:29:37.798Z,5.70
2022-10-01T02:30:37.784Z,6.10
2022-10-01T02:31:38.154Z,5.70
2022-10-01T02:32:37.974Z,5.50
2022-10-01T02:33:38.262Z,5.40
2022-10-01T02:34:37.759Z,5.50
2022-10-01T02:35:37.718Z,5.50
2022-10-01T02:36:37.712Z,5.40
2022-10-01T02:37:37.695Z,5.30
2022-10-01T02:38:37.654Z,5.30
2022-10-01T02:39:37.662Z,5.20
2022-10-01T02:40:37.667Z,5.70
2022-10-01T02:41:37.666Z,5.50
2022-10-01T02:42:37.628Z,5.50
2022-10-01T02:43:42.596Z,5.50
2022-10-01T02:44:39.642Z,5.30
2022-10-01T02:45:37.655Z,5.40
2022-10-01T02:46:37.619Z,5.60
2022-10-01T02:47:37.636Z,5.70
2022-10-01T02:48:37.555Z,5.70
2022-10-01T02:49:37.568Z,6.00
2022-10-01T02:50:38.384Z,5.30
2022-10-01T02:51:37.539Z,5.80
2022-10-01T02:52:37.531Z,5.50
2022-10-01T02:53:37.507Z,5.60
2022-10-01T02:54:37.525Z,5.30
2022-10-01T02:55:37.523Z,5.30
2022-10-01T02:56:37.513Z,5.50
2022-10-01T02:57:37.493Z,5.40
2022-10-01T02:58:37.503Z,5.10
2022-10-01T02:59:37.475Z,5.50
2022-10-01T03:00:37.572Z,5.00
2022-10-01T03:01:37.804Z,5.00
2022-10-01T03:02:37.580Z,4.90
2022-10-01T03:03:37.480Z,5.30
2022-10-01T03:04:37.556Z,5.10
2022-10-01T03:05:37.395Z,4.60
2022-10-01T03:06:37.368Z,4.90
2022-10-01T03:07:37.348Z,4.80
2022-10-01T03:08:37.994Z,4.70
2022-10-01T03:09:37.444Z,4.80
2022-10-01T03:10:37.429Z,5.30
2022-10-01T03:11:37.356Z,4.90
2022-10-01T03:12:37.372Z,4.70
2022-10-01T03:13:37.340Z,4.90
2022-10-01T03:14:37.305Z,5.30
2022-10-01T03:15:37.901Z,5.10
2022-10-01T03:16:37.309Z,5.20
2022-10-01T03:17:37.282Z,5.00
2022-10-01T03:18:37.271Z,5.10
2022-10-01T03:19:37.374Z,5.10
2022-10-01T03:20:37.221Z,5.30
2022-10-01T03:21:37.200Z,5.10
2022-10-01T03:22:37.233Z,5.00
2022-10-01T03:23:37.205Z,5.00
2022-10-01T03:24:37.181Z,5.30
2022-10-01T03:25:37.161Z,4.80
2022-10-01T03:26:37.182Z,5.00
2022-10-01T03:27:37.154Z,5.20
2022-10-01T03:28:37.160Z,4.80
2022-10-01T03:29:37.169Z,4.80
2022-10-01T03:30:37.113Z,5.00
2022-10-01T03:31:37.710Z,4.80
2022-10-01T03:32:37.129Z,5.10
2022-10-01T03:33:37.086Z,4.70
2022-10-01T03:34:37.287Z,5.10
2022-10-01T03:35:37.081Z,4.90
2022-10-01T03:36:37.163Z,4.90
2022-10-01T03:37:37.049Z,5.20
2022-10-01T03:38:37.042Z,4.80
2022-10-01T03:39:37.056Z,4.80
2022-10-01T03:40:37.046Z,5.00
2022-10-01T03:41:37.159Z,4.60
2022-10-01T03:42:37.726Z,4.80
2022-10-01T03:43:36.973Z,4.40
2022-10-01T03:44:37.009Z,4.80
2022-10-01T03:45:37.079Z,4.50
2022-10-01T03:46:36.939Z,4.60
2022-10-01T03:47:36.925Z,4.70
2022-10-01T03:48:37.514Z,4.70
2022-10-01T03:49:36.989Z,4.80
2022-10-01T03:50:36.937Z,4.80
2022-10-01T03:51:37.083Z,4.40
2022-10-01T03:52:37.883Z,4.40
2022-10-01T03:53:37.374Z,4.70
2022-10-01T03:54:37.518Z,4.70
2022-10-01T03:55:36.890Z,4.60
2022-10-01T03:56:36.867Z,4.60
2022-10-01T03:57:36.786Z,4.70
2022-10-01T03:58:36.926Z,4.40
2022-10-01T03:59:36.811Z,4.70
2022-10-01T04:00:37.434Z,4.70
2022-10-01T04:01:37.290Z,4.60
2022-10-01T04:02:36.911Z,4.90
2022-10-01T04:03:36.814Z,4.70
2022-10-01T04:04:36.731Z,4.30
2022-10-01T04:05:36.767Z,4.20
2022-10-01T04:06:36.773Z,4.40
2022-10-01T04:07:36.690Z,4.40
2022-10-01T04:08:36.692Z,4.60
2022-10-01T04:09:36.806Z,4.80
2022-10-01T04:10:36.751Z,4.80
2022-10-01T04:11:36.990Z,4.40
2022-10-01T04:12:36.677Z,5.00
2022-10-01T04:13:37.898Z,4.40
2022-10-01T04:14:36.921Z,4.40
2022-10-01T04:15:36.607Z,4.40
2022-10-01T04:16:36.697Z,4.70
2022-10-01T04:17:36.621Z,4.30
2022-10-01T04:18:36.600Z,4.50
2022-10-01T04:19:36.557Z,4.40
2022-10-01T04:20:36.590Z,4.50
2022-10-01T04:21:36.928Z,4.90
2022-10-01T04:22:36.804Z,4.50
2022-10-01T04:23:36.733Z,4.80
2022-10-01T04:24:36.589Z,5.10
2022-10-01T04:25:36.524Z,4.50
2022-10-01T04:26:37.765Z,5.70
2022-10-01T04:27:36.677Z,5.10
2022-10-01T04:28:36.566Z,5.70
2022-10-01T04:29:40.072Z,6.20
2022-10-01T04:30:37.471Z,5.60
2022-10-01T04:31:37.826Z,6.60
2022-10-01T04:32:36.510Z,6.50
2022-10-01T04:33:36.452Z,5.90
2022-10-01T04:34:36.952Z,6.60
2022-10-01T04:35:37.370Z,6.80
2022-10-01T04:36:36.423Z,6.70
2022-10-01T04:37:36.424Z,7.20
2022-10-01T04:38:36.388Z,7.20
2022-10-01T04:39:36.365Z,7.50
2022-10-01T04:40:36.402Z,6.90
2022-10-01T04:41:36.939Z,7.40
2022-10-01T04:42:36.352Z,7.40
2022-10-01T04:43:36.329Z,8.10
2022-10-01T04:44:36.385Z,8.30
2022-10-01T04:45:36.345Z,9.20
2022-10-01T04:46:36.332Z,8.80
2022-10-01T04:47:37.698Z,9.00
2022-10-01T04:48:37.305Z,8.40
2022-10-01T04:49:36.325Z,8.40
2022-10-01T04:50:36.290Z,8.90
2022-10-01T04:51:36.533Z,9.00
2022-10-01T04:52:36.249Z,8.60
2022-10-01T04:53:36.828Z,9.30
2022-10-01T04:54:36.245Z,9.10
2022-10-01T04:55:36.209Z,9.10
2022-10-01T04:56:36.402Z,9.00
2022-10-01T04:57:36.189Z,8.20
2022-10-01T04:58:36.169Z,9.70
2022-10-01T04:59:36.275Z,10.10
2022-10-01T05:00:36.474Z,10.40
2022-10-01T05:01:36.643Z,10.40
2022-10-01T05:02:36.904Z,10.00
2022-10-01T05:03:37.106Z,10.60
2022-10-01T05:04:37.202Z,10.00
2022-10-01T05:05:36.202Z,10.10
2022-10-01T05:06:36.141Z,10.70
2022-10-01T05:07:36.089Z,9.30
2022-10-01T05:08:36.876Z,9.50
2022-10-01T05:09:36.077Z,12.40
2022-10-01T05:10:36.165Z,10.60
2022-10-01T05:11:36.465Z,9.80
2022-10-01T05:12:36.057Z,9.00
2022-10-01T05:13:37.139Z,9.90
2022-10-01T05:14:36.058Z,9.90
2022-10-01T05:15:35.994Z,9.80
2022-10-01T05:16:36.025Z,10.90
2022-10-01T05:17:35.974Z,11.00
2022-10-01T05:18:35.970Z,11.40
2022-10-01T05:19:35.911Z,9.70
2022-10-01T05:20:35.958Z,11.60
2022-10-01T05:21:36.088Z,10.10
2022-10-01T05:22:35.944Z,11.10
2022-10-01T05:23:35.921Z,11.70
2022-10-01T05:24:36.210Z,12.10
2022-10-01T05:25:35.850Z,10.90
2022-10-01T05:26:35.873Z,11.50
2022-10-01T05:27:35.911Z,11.00
2022-10-01T05:28:35.891Z,11.70
2022-10-01T05:29:35.900Z,12.50
2022-10-01T05:30:35.839Z,13.20
2022-10-01T05:31:36.413Z,12.90
2022-10-01T05:32:35.918Z,10.30
2022-10-01T05:33:35.825Z,12.30
2022-10-01T05:34:35.791Z,12.50
2022-10-01T05:35:36.454Z,11.40
2022-10-01T05:36:35.847Z,13.60
2022-10-01T05:37:35.726Z,13.20
2022-10-01T05:38:35.791Z,13.00
2022-10-01T05:39:35.723Z,12.00
2022-10-01T05:40:35.791Z,12.50
2022-10-01T05:41:36.010Z,12.30
2022-10-01T05:42:35.669Z,13.70
2022-10-01T05:43:35.651Z,11.90
2022-10-01T05:44:35.752Z,12.50
2022-10-01T05:45:35.961Z,13.30
2022-10-01T05:46:35.737Z,12.80
2022-10-01T05:47:37.367Z,12.40
2022-10-01T05:48:35.685Z,12.80
2022-10-01T05:49:35.580Z,12.60
2022-10-01T05:50:35.568Z,13.30
2022-10-01T05:51:35.961Z,12.90
2022-10-01T05:52:35.576Z,15.10
2022-10-01T05:53:35.721Z,14.40
2022-10-01T05:54:35.553Z,13.50
2022-10-01T05:55:35.516Z,12.70
2022-10-01T05:56:35.525Z,14.00
2022-10-01T05:57:35.556Z,15.00
2022-10-01T05:58:35.544Z,12.50
2022-10-01T05:59:35.740Z,10.70
2022-10-01T06:00:35.485Z,11.80
2022-10-01T06:01:35.847Z,12.40
2022-10-01T06:02:36.255Z,11.00
2022-10-01T06:03:36.321Z,10.40
2022-10-01T06:04:40.324Z,11.70
2022-10-01T06:05:37.455Z,10.40
2022-10-01T06:06:35.466Z,11.50
2022-10-01T06:07:43.288Z,10.80
2022-10-01T06:08:35.410Z,8.50
2022-10-01T06:09:35.324Z,10.20
2022-10-01T06:10:35.385Z,10.90
2022-10-01T06:11:35.774Z,10.50
2022-10-01T06:15:01.261Z,9.60
2022-10-01T06:15:05.321Z,10.30
2022-10-01T06:16:04.827Z,9.30
2022-10-01T06:17:08.852Z,11.30
2022-10-01T06:18:04.741Z,10.10
2022-10-01T06:19:04.854Z,10.40
2022-10-01T06:20:04.912Z,11.10
2022-10-01T06:21:04.702Z,10.40
2022-10-01T06:22:04.692Z,9.50
2022-10-01T06:23:04.738Z,10.30
2022-10-01T06:24:05.308Z,11.40
2022-10-01T06:25:04.747Z,11.30
2022-10-01T06:26:05.297Z,9.70
2022-10-01T06:27:04.716Z,10.90
2022-10-01T06:28:05.999Z,9.20
2022-10-01T06:29:04.954Z,9.10
2022-10-01T06:30:04.818Z,10.20
2022-10-01T06:31:04.733Z,9.90
2022-10-01T06:32:04.727Z,10.60
2022-10-01T06:33:05.055Z,10.70
2022-10-01T06:34:04.614Z,9.20
2022-10-01T06:35:04.580Z,9.00
2022-10-01T06:36:04.514Z,9.40
2022-10-01T06:37:04.506Z,10.60
2022-10-01T06:38:04.507Z,10.70
2022-10-01T06:39:04.502Z,8.90
2022-10-01T06:40:04.610Z,9.20
2022-10-01T06:41:04.472Z,8.90
2022-10-01T06:42:04.622Z,8.90
2022-10-01T06:43:04.446Z,8.60
2022-10-01T06:44:04.539Z,9.20
2022-10-01T06:45:05.130Z,9.70
2022-10-01T06:46:40.170Z,9.40
2022-10-01T06:47:04.422Z,8.50
2022-10-01T06:48:04.455Z,8.30
2022-10-01T06:49:05.738Z,7.80
2022-10-01T06:50:04.487Z,7.90
2022-10-01T06:51:04.404Z,8.10
2022-10-01T06:52:04.491Z,7.90
2022-10-01T06:53:04.366Z,7.50
2022-10-01T06:54:04.360Z,7.60
2022-10-01T06:55:04.457Z,8.10
2022-10-01T06:56:05.007Z,8.50
2022-10-01T06:57:04.399Z,7.60
2022-10-01T06:58:04.322Z,6.30
2022-10-01T06:59:04.319Z,6.50
2022-10-01T07:00:04.310Z,7.20
2022-10-01T07:01:05.328Z,7.20
2022-10-01T07:02:04.347Z,6.90
2022-10-01T07:03:04.326Z,7.10
2022-10-01T07:04:04.251Z,7.20
2022-10-01T07:05:04.951Z,6.60
2022-10-01T07:06:04.348Z,6.10
2022-10-01T07:07:04.189Z,7.20
2022-10-01T07:08:04.187Z,7.20
2022-10-01T07:09:04.227Z,7.30
2022-10-01T07:10:04.167Z,6.70
2022-10-01T07:11:05.808Z,6.80
2022-10-01T07:12:04.137Z,7.10
2022-10-01T07:13:04.107Z,6.20
2022-10-01T07:14:04.215Z,6.50
2022-10-01T07:15:04.116Z,7.10
2022-10-01T07:16:04.192Z,6.90
2022-10-01T07:17:04.068Z,6.70
2022-10-01T07:18:04.990Z,6.20
2022-10-01T07:19:04.060Z,5.60
2022-10-01T07:20:04.090Z,6.60
2022-10-01T07:21:04.196Z,6.30
2022-10-01T07:22:04.556Z,6.80
2022-10-01T07:23:04.076Z,5.60
2022-10-01T07:24:04.107Z,6.00
2022-10-01T07:25:04.852Z,6.40
2022-10-01T07:26:04.092Z,5.80
2022-10-01T07:27:07.400Z,5.80
2022-10-01T07:28:05.311Z,6.10
2022-10-01T07:29:04.877Z,6.10
2022-10-01T07:30:04.160Z,5.40
2022-10-01T07:31:04.061Z,5.30
2022-10-01T07:32:04.146Z,4.90
2022-10-01T07:33:03.960Z,5.30
2022-10-01T07:34:03.976Z,5.70
2022-10-01T07:35:04.452Z,5.20
2022-10-01T07:36:03.892Z,4.70
2022-10-01T07:37:03.989Z,4.10
2022-10-01T07:38:04.225Z,4.30
2022-10-01T07:39:03.890Z,4.70
2022-10-01T07:40:07.365Z,4.10
2022-10-01T07:41:05.906Z,4.40
2022-10-01T07:42:04.100Z,3.90
2022-10-01T07:43:03.861Z,4.00
2022-10-01T07:44:03.809Z,4.10
2022-10-01T07:45:04.022Z,4.20
2022-10-01T07:46:03.955Z,3.90
2022-10-01T07:47:04.865Z,3.80
2022-10-01T07:48:03.765Z,3.40
2022-10-01T07:49:04.305Z,3.70
2022-10-01T07:50:03.803Z,3.80
2022-10-01T07:51:03.841Z,4.10
2022-10-01T07:52:04.046Z,3.60
2022-10-01T07:53:04.517Z,3.90
2022-10-01T07:54:03.853Z,4.00
2022-10-01T07:55:03.714Z,3.80
2022-10-01T07:56:03.694Z,3.50
2022-10-01T07:57:03.650Z,3.40
2022-10-01T07:58:03.671Z,3.10
2022-10-01T07:59:04.575Z,3.00
2022-10-01T08:00:03.593Z,3.30
2022-10-01T08:01:03.713Z,3.00
2022-10-01T08:02:03.920Z,2.90
2022-10-01T08:03:03.609Z,3.30
2022-10-01T08:04:03.898Z,3.00
2022-10-01T08:05:03.658Z,3.20
2022-10-01T08:06:03.659Z,3.60
2022-10-01T08:07:03.545Z,3.10
2022-10-01T08:08:04.499Z,2.70
2022-10-01T08:09:03.860Z,2.90
2022-10-01T08:10:03.954Z,2.90
2022-10-01T08:11:03.815Z,2.50
2022-10-01T08:12:03.629Z,2.60
2022-10-01T08:13:03.518Z,2.30
2022-10-01T08:14:03.553Z,2.80
2022-10-01T08:15:03.470Z,2.70
2022-10-01T08:16:03.510Z,2.70
2022-10-01T08:17:03.495Z,2.40
2022-10-01T08:18:03.439Z,2.50
2022-10-01T08:19:03.596Z,2.90
2022-10-01T08:20:03.387Z,2.50
2022-10-01T08:21:03.479Z,2.60
2022-10-01T08:22:03.972Z,2.80
2022-10-01T08:23:03.394Z,2.50
2022-10-01T08:24:04.119Z,2.70
2022-10-01T08:25:03.378Z,2.30
2022-10-01T08:26:03.346Z,2.20
2022-10-01T08:27:03.594Z,2.70
2022-10-01T08:28:03.523Z,2.50
2022-10-01T08:29:03.362Z,2.70
2022-10-01T08:30:03.296Z,4.40
2022-10-01T08:31:03.276Z,3.30
2022-10-01T08:32:03.320Z,2.70
2022-10-01T08:33:03.291Z,3.20
2022-10-01T08:34:03.326Z,2.80
2022-10-01T08:35:04.588Z,2.40
2022-10-01T08:36:03.317Z,2.60
2022-10-01T08:37:03.244Z,2.40
2022-10-01T08:38:03.213Z,2.60
2022-10-01T08:39:03.304Z,2.70
2022-10-01T08:40:03.416Z,2.50
2022-10-01T08:41:03.279Z,2.70
2022-10-01T08:42:03.244Z,2.70
2022-10-01T08:43:03.181Z,2.40
2022-10-01T08:44:03.248Z,2.50
2022-10-01T08:45:03.263Z,2.60
2022-10-01T08:46:03.133Z,2.70
2022-10-01T08:47:03.384Z,2.80
2022-10-01T08:48:03.212Z,2.70
2022-10-01T08:49:03.087Z,2.70
2022-10-01T08:50:03.404Z,2.80
2022-10-01T08:51:03.110Z,2.50
2022-10-01T08:52:03.419Z,3.60
2022-10-01T08:53:03.059Z,2.80
2022-10-01T08:54:03.932Z,2.60
2022-10-01T08:55:03.052Z,2.90
2022-10-01T08:56:03.233Z,2.90
2022-10-01T08:57:03.036Z,2.70
2022-10-01T08:58:03.216Z,2.50
2022-10-01T08:59:02.980Z,2.50
2022-10-01T09:00:03.007Z,2.60
2022-10-01T09:01:03.082Z,2.50
2022-10-01T09:02:03.033Z,2.70
2022-10-01T09:03:03.004Z,3.00
2022-10-01T09:04:03.173Z,2.90
2022-10-01T09:05:03.073Z,3.00
2022-10-01T09:06:02.891Z,3.70
2022-10-01T09:07:02.916Z,3.80
2022-10-01T09:08:02.923Z,4.40
2022-10-01T09:09:03.393Z,5.00
2022-10-01T09:10:02.956Z,3.30
2022-10-01T09:11:02.932Z,4.20
2022-10-01T09:12:02.785Z,4.40
2022-10-01T09:13:02.825Z,6.30
2022-10-01T09:14:02.809Z,4.60
2022-10-01T09:15:03.162Z,2.50
2022-10-01T09:16:02.829Z,2.60
2022-10-01T09:17:02.970Z,3.60
2022-10-01T09:18:02.838Z,3.70
2022-10-01T09:19:02.752Z,3.00
2022-10-01T09:20:02.778Z,5.60
2022-10-01T09:21:02.750Z,2.30
2022-10-01T09:22:02.913Z,2.40
2022-10-01T09:23:02.738Z,3.50
2022-10-01T09:24:02.779Z,3.40
2022-10-01T09:25:02.729Z,3.80
2022-10-01T09:26:02.701Z,2.90
2022-10-01T09:27:02.778Z,3.60
2022-10-01T09:28:02.784Z,3.70
2022-10-01T09:29:03.585Z,3.40
2022-10-01T09:30:02.636Z,3.00
2022-10-01T09:31:02.655Z,2.50
2022-10-01T09:32:02.937Z,2.50
2022-10-01T09:33:02.687Z,2.90
2022-10-01T09:34:02.832Z,2.80
2022-10-01T09:35:04.649Z,2.30
2022-10-01T09:36:03.570Z,2.30
2022-10-01T09:37:02.686Z,2.80
2022-10-01T09:38:02.700Z,3.00
2022-10-01T09:39:03.937Z,2.90
2022-10-01T09:40:02.628Z,2.80
2022-10-01T09:41:02.519Z,2.70
2022-10-01T09:42:02.523Z,3.40
2022-10-01T09:43:02.514Z,3.00
2022-10-01T09:44:02.570Z,3.00
2022-10-01T09:45:02.635Z,2.90
2022-10-01T09:46:02.577Z,2.70
2022-10-01T09:47:03.099Z,2.30
2022-10-01T09:48:03.630Z,2.50
2022-10-01T09:49:02.599Z,3.10
2022-10-01T09:50:02.587Z,2.50
2022-10-01T09:51:02.457Z,2.20
2022-10-01T09:52:02.442Z,2.60
2022-10-01T09:53:03.016Z,3.00
2022-10-01T09:54:02.519Z,2.20
2022-10-01T09:55:02.727Z,2.70
2022-10-01T09:56:02.357Z,2.90
2022-10-01T09:57:02.351Z,2.70
2022-10-01T09:58:02.352Z,3.40
2022-10-01T09:59:02.349Z,3.00
2022-10-01T10:00:02.316Z,2.40
2022-10-01T10:01:02.312Z,2.80
2022-10-01T10:02:02.478Z,2.60
2022-10-01T10:03:06.825Z,2.70
2022-10-01T10:04:02.472Z,2.30
2022-10-01T10:05:02.255Z,2.50
2022-10-01T10:06:02.296Z,2.40
2022-10-01T10:07:02.247Z,2.90
2022-10-01T10:08:02.227Z,2.90
2022-10-01T10:09:02.259Z,2.60
2022-10-01T10:10:02.326Z,3.10
2022-10-01T10:11:02.224Z,2.70
2022-10-01T10:12:02.211Z,2.60
2022-10-01T10:13:02.439Z,2.90
2022-10-01T10:14:02.524Z,2.30
2022-10-01T10:15:02.175Z,2.60
2022-10-01T10:16:03.089Z,2.30
2022-10-01T10:17:02.181Z,2.30
2022-10-01T10:18:02.629Z,2.50
2022-10-01T10:19:02.179Z,2.30
2022-10-01T10:20:02.360Z,2.30
2022-10-01T10:21:02.094Z,2.30
2022-10-01T10:22:02.133Z,2.60
2022-10-01T10:23:02.144Z,2.30
2022-10-01T10:24:02.129Z,2.40
2022-10-01T10:25:04.379Z,2.70
2022-10-01T10:26:02.109Z,2.30
2022-10-01T10:27:02.128Z,2.60
2022-10-01T10:28:02.088Z,2.40
2022-10-01T10:29:02.034Z,2.70
2022-10-01T10:30:02.225Z,2.80
2022-10-01T10:31:02.260Z,2.80
2022-10-01T10:32:03.925Z,3.00
2022-10-01T10:33:02.789Z,3.10
2022-10-01T10:34:02.957Z,2.70
2022-10-01T10:35:03.424Z,3.30
2022-10-01T10:36:03.529Z,2.70
2022-10-01T10:37:02.394Z,2.80
2022-10-01T10:38:20.344Z,3.20
2022-10-01T10:39:02.329Z,3.20
2022-10-01T10:40:01.902Z,3.30
2022-10-01T10:41:01.905Z,2.90
2022-10-01T10:42:01.926Z,2.90
2022-10-01T10:43:01.858Z,2.50
2022-10-01T10:44:02.658Z,2.80
2022-10-01T10:45:01.863Z,2.40
2022-10-01T10:46:02.892Z,2.40
2022-10-01T10:47:01.810Z,3.00
2022-10-01T10:48:01.846Z,2.70
2022-10-01T10:49:01.766Z,2.40
2022-10-01T10:50:01.866Z,2.20
2022-10-01T10:51:05.058Z,2.60
2022-10-01T10:52:01.803Z,2.20
2022-10-01T10:53:01.782Z,2.70
2022-10-01T10:54:01.782Z,2.60
2022-10-01T10:55:01.760Z,2.60
2022-10-01T10:56:01.844Z,2.60
2022-10-01T10:57:01.778Z,2.20
2022-10-01T10:58:05.056Z,2.30
2022-10-01T10:59:02.851Z,2.40
2022-10-01T11:00:01.660Z,2.70
2022-10-01T11:01:01.786Z,2.50
2022-10-01T11:02:02.714Z,2.30
2022-10-01T11:03:01.642Z,2.40
2022-10-01T11:04:01.970Z,2.40
2022-10-01T11:05:01.621Z,2.70
2022-10-01T11:06:01.700Z,2.60
2022-10-01T11:07:01.619Z,3.20
2022-10-01T11:08:01.760Z,3.20
2022-10-01T11:09:02.083Z,3.00
2022-10-01T11:10:02.727Z,2.80
2022-10-01T11:11:01.599Z,2.40
2022-10-01T11:12:01.622Z,2.40
2022-10-01T11:13:02.456Z,3.00
2022-10-01T11:14:01.788Z,2.10
2022-10-01T11:15:01.617Z,2.40
2022-10-01T11:16:01.574Z,2.40
2022-10-01T11:17:01.565Z,1.90
2022-10-01T11:18:01.515Z,2.20
2022-10-01T11:19:01.455Z,2.20
2022-10-01T11:20:01.486Z,2.20
2022-10-01T11:21:01.452Z,2.10
2022-10-01T11:22:01.544Z,2.20
2022-10-01T11:23:01.501Z,2.00
2022-10-01T11:24:01.397Z,2.10
2022-10-01T11:25:01.497Z,2.10
2022-10-01T11:26:01.405Z,2.00
2022-10-01T11:27:01.585Z,2.00
2022-10-01T11:28:01.507Z,1.60
2022-10-01T11:29:01.377Z,2.00
2022-10-01T11:30:01.394Z,1.80
2022-10-01T11:31:01.966Z,1.60
2022-10-01T11:32:01.433Z,1.60
2022-10-01T11:33:01.691Z,1.70
2022-10-01T11:34:01.423Z,1.70
2022-10-01T11:35:01.333Z,1.40
2022-10-01T11:36:01.305Z,1.70
2022-10-01T11:37:01.318Z,1.40
2022-10-01T11:38:01.256Z,1.40
2022-10-01T11:39:01.964Z,1.40
2022-10-01T11:40:01.994Z,1.70
2022-10-01T11:41:01.273Z,1.50
2022-10-01T11:42:01.276Z,1.30
2022-10-01T11:43:01.316Z,1.40
2022-10-01T11:44:01.242Z,1.40
2022-10-01T11:45:01.442Z,1.30
2022-10-01T11:46:01.229Z,1.30
2022-10-01T11:47:01.192Z,1.30
2022-10-01T11:48:01.320Z,1.30
2022-10-01T11:49:01.196Z,1.40
2022-10-01T11:50:01.190Z,1.10
2022-10-01T11:51:01.154Z,1.30
2022-10-01T11:52:01.253Z,1.40
2022-10-01T11:53:01.056Z,1.50
2022-10-01T11:54:01.173Z,1.20
2022-10-01T11:55:01.089Z,1.40
2022-10-01T11:56:01.055Z,1.50
2022-10-01T11:57:01.181Z,1.50
2022-10-01T11:58:01.096Z,1.40
2022-10-01T11:59:01.028Z,1.20
2022-10-01T12:00:01.269Z,1.60
2022-10-01T12:01:01.070Z,1.30
2022-10-01T12:02:01.101Z,1.60
2022-10-01T12:03:02.011Z,1.50
2022-10-01T12:04:01.213Z,1.20
2022-10-01T12:05:01.098Z,1.40
2022-10-01T12:06:00.959Z,1.40
2022-10-01T12:07:01.209Z,1.50
2022-10-01T12:08:00.962Z,1.30
2022-10-01T12:09:00.889Z,1.20
2022-10-01T12:10:00.867Z,1.40
2022-10-01T12:11:01.440Z,1.30
2022-10-01T12:12:35.364Z,1.20
2022-10-01T12:13:00.902Z,1.20
2022-10-01T12:14:00.886Z,1.40
2022-10-01T12:15:05.729Z,1.20
2022-10-01T12:16:01.901Z,1.40
2022-10-01T12:17:00.866Z,1.30
2022-10-01T12:18:00.810Z,1.40
2022-10-01T12:19:00.771Z,1.30
2022-10-01T12:20:00.771Z,1.10
2022-10-01T12:21:00.779Z,1.10
2022-10-01T12:22:00.735Z,1.30
2022-10-01T12:23:00.738Z,1.20
2022-10-01T12:24:00.735Z,1.40
2022-10-01T12:25:00.748Z,1.40
2022-10-01T12:26:00.774Z,1.30
2022-10-01T12:27:00.782Z,1.60
2022-10-01T12:28:00.730Z,1.40
2022-10-01T12:29:01.531Z,1.50
2022-10-01T12:30:00.675Z,1.60
2022-10-01T12:31:00.678Z,1.80
2022-10-01T12:32:00.839Z,1.80
2022-10-01T12:33:01.067Z,2.00
2022-10-01T12:34:00.626Z,1.80
2022-10-01T12:35:00.660Z,2.00
2022-10-01T12:36:00.680Z,2.40
2022-10-01T12:37:00.615Z,2.10
2022-10-01T12:38:00.637Z,2.40
2022-10-01T12:39:00.621Z,2.00
2022-10-01T12:40:00.567Z,2.20
2022-10-01T12:41:00.546Z,2.00
2022-10-01T12:42:00.563Z,2.10
2022-10-01T12:43:04.058Z,2.50
2022-10-01T12:44:01.587Z,2.80
2022-10-01T12:45:00.504Z,2.20
2022-10-01T12:46:00.862Z,2.10
2022-10-01T12:47:00.496Z,2.10
2022-10-01T12:48:00.506Z,2.20
2022-10-01T12:49:00.509Z,2.70
2022-10-01T12:50:00.456Z,2.20
2022-10-01T12:51:00.456Z,2.30
2022-10-01T12:52:00.416Z,2.30
2022-10-01T12:53:00.542Z,1.90
2022-10-01T12:54:00.525Z,2.20
2022-10-01T12:55:00.448Z,2.30
2022-10-01T12:56:00.376Z,2.20
2022-10-01T12:57:00.400Z,2.10
2022-10-01T12:58:00.388Z,2.30
2022-10-01T12:59:00.368Z,2.20
2022-10-01T13:00:00.504Z,2.20
2022-10-01T13:01:00.422Z,2.00
2022-10-01T13:02:00.359Z,2.20
2022-10-01T13:03:00.321Z,2.10
2022-10-01T13:04:03.378Z,2.10
2022-10-01T13:05:01.330Z,2.60
2022-10-01T13:06:00.276Z,2.10
2022-10-01T13:07:00.282Z,1.90
2022-10-01T13:08:00.269Z,1.80
2022-10-01T13:09:00.268Z,2.30
2022-10-01T13:10:00.961Z,1.70
2022-10-01T13:11:00.237Z,1.90
2022-10-01T13:12:00.588Z,1.70
2022-10-01T13:13:01.198Z,1.90
2022-10-01T13:14:00.365Z,2.00
2022-10-01T13:15:00.211Z,1.90
2022-10-01T13:16:00.251Z,2.10
2022-10-01T13:17:00.173Z,1.80